Time;durP1;ratioP1;P1;durP2;ratioP2;P2;SDS_P1;SDS_P2;PMS_P1;PMS_P2;Temp;Humidity;BMP_temperature;BMP_pressure;BME280_temperature;BME280_humidity;BME280_pressure;Samples;Min_cycle;Max_cycle;Signal;HPM_P1;HPM_P2
2022/07/23 00:00:00;;;;;;;8.10;3.17;;;14.80;99.90;;;;;;4956923;28;20036;-64
2022/07/23 00:02:26;;;;;;;7.15;3.28;;;14.80;99.90;;;;;;4964309;28;20031;-64
2022/07/23 00:04:52;;;;;;;6.68;3.20;;;14.80;99.90;;;;;;4953590;29;20050;-64
2022/07/23 00:07:17;;;;;;;5.28;3.10;;;14.70;99.90;;;;;;4953671;28;20043;-64
2022/07/23 00:09:43;;;;;;;4.80;3.42;;;14.70;99.90;;;;;;4953166;28;20039;-64
2022/07/23 00:12:08;;;;;;;5.93;3.60;;;14.60;99.90;;;;;;4953063;28;20535;-64
2022/07/23 00:14:34;;;;;;;6.35;3.33;;;14.50;99.90;;;;;;4953655;29;20043;-64
2022/07/23 00:17:00;;;;;;;7.50;3.53;;;14.50;99.90;;;;;;4952118;28;20114;-64
2022/07/23 00:19:25;;;;;;;7.25;3.45;;;14.40;99.90;;;;;;4952699;28;20031;-65
2022/07/23 00:21:51;;;;;;;6.53;3.60;;;14.30;99.90;;;;;;4953081;28;20125;-64
2022/07/23 00:24:17;;;;;;;4.75;3.63;;;14.30;99.90;;;;;;4953777;28;20043;-64
2022/07/23 00:26:42;;;;;;;13.77;4.03;;;14.30;99.90;;;;;;4955528;28;20045;-64
2022/07/23 00:29:08;;;;;;;8.38;3.85;;;14.20;99.90;;;;;;4953117;28;20043;-64
2022/07/23 00:31:34;;;;;;;5.97;3.53;;;14.20;99.90;;;;;;4957038;28;20184;-64
2022/07/23 00:34:01;;;;;;;6.22;3.53;;;14.10;99.90;;;;;;4962362;28;20031;-64
2022/07/23 00:36:27;;;;;;;7.13;3.65;;;14.10;99.90;;;;;;4953030;28;20037;-64
2022/07/23 00:38:53;;;;;;;7.00;3.47;;;14.00;99.90;;;;;;4955097;28;20038;-64
2022/07/23 00:41:19;;;;;;;26.48;2.42;;;13.90;99.90;;;;;;4960500;28;20050;-64
2022/07/23 00:43:45;;;;;;;9.05;2.00;;;13.90;99.90;;;;;;4957805;28;20040;-64
2022/07/23 00:46:11;;;;;;;8.07;3.78;;;13.90;99.90;;;;;;4952967;28;20047;-64
2022/07/23 00:48:36;;;;;;;6.95;3.60;;;13.90;99.90;;;;;;4950619;28;20039;-64
2022/07/23 00:51:03;;;;;;;8.73;1.95;;;13.90;99.90;;;;;;4962055;28;20043;-64
2022/07/23 00:53:28;;;;;;;6.07;3.72;;;13.80;99.90;;;;;;4952134;28;20035;-64
2022/07/23 00:55:54;;;;;;;6.10;3.90;;;13.80;99.90;;;;;;4951402;28;20046;-65
2022/07/23 00:58:20;;;;;;;6.25;4.00;;;13.80;99.90;;;;;;4955798;28;20038;-64
2022/07/23 01:00:46;;;;;;;6.82;4.32;;;13.80;99.90;;;;;;4958487;28;20038;-64
2022/07/23 01:03:11;;;;;;;5.75;4.20;;;13.80;99.90;;;;;;4971636;28;20455;-64
2022/07/23 01:05:38;;;;;;;7.07;4.45;;;13.80;99.90;;;;;;4955507;28;20037;-64
2022/07/23 01:08:05;;;;;;;7.03;4.25;;;13.80;99.90;;;;;;4935810;28;20047;-64
2022/07/23 01:10:31;;;;;;;8.25;3.90;;;13.90;99.90;;;;;;4952497;29;20050;-64
2022/07/23 01:13:07;;;;;;;5.57;3.50;;;13.90;99.90;;;;;;4948837;28;20035;-64
2022/07/23 01:15:35;;;;;;;8.88;4.68;;;13.80;99.90;;;;;;4957460;28;20031;-64
2022/07/23 01:18:01;;;;;;;6.68;4.43;;;13.80;99.90;;;;;;4951944;28;20046;-64
2022/07/23 01:20:27;;;;;;;6.82;5.05;;;13.80;99.90;;;;;;4951920;29;20118;-64
2022/07/23 01:22:53;;;;;;;9.68;4.93;;;13.70;99.90;;;;;;4952786;28;20138;-64
2022/07/23 01:25:20;;;;;;;7.90;4.60;;;13.80;99.90;;;;;;4955087;28;20167;-65
2022/07/23 01:27:45;;;;;;;7.40;5.22;;;13.80;99.90;;;;;;4952166;28;20471;-64
2022/07/23 01:30:12;;;;;;;10.68;5.07;;;13.90;99.90;;;;;;4952183;28;20077;-65
2022/07/23 01:32:38;;;;;;;6.93;4.70;;;13.90;99.90;;;;;;4951602;28;20050;-64
2022/07/23 01:35:05;;;;;;;7.03;4.20;;;13.80;99.90;;;;;;4951561;28;20054;-64
2022/07/23 01:37:31;;;;;;;10.27;4.38;;;13.80;99.90;;;;;;4952202;29;20686;-65
2022/07/23 01:39:57;;;;;;;5.93;3.83;;;13.80;99.90;;;;;;4953724;28;20074;-64
2022/07/23 01:42:23;;;;;;;10.00;4.40;;;13.70;99.90;;;;;;4958869;28;20614;-64
2022/07/23 01:44:49;;;;;;;6.45;3.90;;;13.60;99.90;;;;;;4952035;28;20035;-64
2022/07/23 01:47:15;;;;;;;8.45;5.00;;;13.60;99.90;;;;;;4951289;28;20075;-64
2022/07/23 01:49:41;;;;;;;6.40;4.60;;;13.60;99.90;;;;;;4958860;28;20071;-64
2022/07/23 01:52:10;;;;;;;7.18;4.97;;;13.50;99.90;;;;;;4950973;28;20458;-64
2022/07/23 01:54:37;;;;;;;8.18;5.00;;;13.50;99.90;;;;;;4953821;28;20050;-64
2022/07/23 01:57:03;;;;;;;8.35;5.00;;;13.40;99.90;;;;;;4954012;28;20127;-64
2022/07/23 01:59:29;;;;;;;10.95;5.10;;;13.40;99.90;;;;;;4951299;28;20046;-64
2022/07/23 02:01:55;;;;;;;7.53;4.90;;;13.30;99.90;;;;;;4959354;28;20049;-64
2022/07/23 02:04:22;;;;;;;13.88;4.57;;;13.30;99.90;;;;;;4960515;28;20031;-64
2022/07/23 02:06:48;;;;;;;7.80;5.00;;;13.30;99.90;;;;;;4953776;28;20027;-64
2022/07/23 02:09:14;;;;;;;59.20;4.35;;;13.20;99.90;;;;;;4951283;29;20043;-64
2022/07/23 02:11:41;;;;;;;4.88;3.00;;;13.20;99.90;;;;;;4953870;28;20027;-64
2022/07/23 02:14:06;;;;;;;5.65;2.40;;;13.00;99.90;;;;;;4951356;28;20031;-64
2022/07/23 02:16:32;;;;;;;19.10;2.17;;;13.00;99.90;;;;;;4951594;28;20078;-64
2022/07/23 02:18:58;;;;;;;5.85;2.72;;;12.90;99.90;;;;;;4949242;28;20077;-64
2022/07/23 02:21:23;;;;;;;3.70;2.90;;;12.90;99.90;;;;;;4951968;28;20074;-64
2022/07/23 02:23:49;;;;;;;6.22;4.07;;;12.90;99.90;;;;;;4955867;28;20043;-64
2022/07/23 02:26:15;;;;;;;5.60;3.97;;;12.80;99.90;;;;;;4951837;28;20047;-64
2022/07/23 02:28:40;;;;;;;6.85;4.25;;;12.70;99.90;;;;;;4952308;28;20043;-64
2022/07/23 02:31:06;;;;;;;8.00;5.10;;;12.70;99.90;;;;;;4958539;28;20111;-64
2022/07/23 02:33:32;;;;;;;53.10;5.65;;;12.70;99.90;;;;;;4950989;28;20047;-64
2022/07/23 02:35:58;;;;;;;14.70;5.60;;;12.80;99.90;;;;;;4950090;28;20510;-64
2022/07/23 02:38:24;;;;;;;15.48;4.82;;;12.70;99.90;;;;;;4961208;28;20035;-64
2022/07/23 02:40:50;;;;;;;50.47;5.65;;;12.70;99.90;;;;;;4955216;28;20039;-64
2022/07/23 02:43:15;;;;;;;11.52;6.13;;;12.70;99.90;;;;;;4951259;28;20047;-64
2022/07/23 02:45:41;;;;;;;8.57;5.88;;;12.70;99.90;;;;;;4951404;28;20023;-64
2022/07/23 02:48:07;;;;;;;13.23;5.88;;;12.70;99.90;;;;;;4950398;28;20508;-64
2022/07/23 02:50:32;;;;;;;7.47;3.75;;;12.60;99.90;;;;;;4953540;28;20085;-64
2022/07/23 02:52:58;;;;;;;8.65;4.72;;;12.50;99.90;;;;;;4934500;28;20574;-64
2022/07/23 02:55:24;;;;;;;7.65;5.20;;;12.50;99.90;;;;;;4958143;28;20039;-64
2022/07/23 02:57:50;;;;;;;9.38;5.15;;;12.40;99.90;;;;;;4964404;28;20028;-64
2022/07/23 03:00:16;;;;;;;7.68;5.15;;;12.40;99.90;;;;;;4951795;28;20399;-64
2022/07/23 03:02:41;;;;;;;11.18;5.53;;;12.40;99.90;;;;;;4950508;28;20392;-64
2022/07/23 03:05:07;;;;;;;8.80;4.40;;;12.40;99.90;;;;;;4951515;28;20588;-63
2022/07/23 03:07:33;;;;;;;7.32;4.93;;;12.40;99.90;;;;;;4952279;29;20051;-64
2022/07/23 03:09:59;;;;;;;7.85;5.07;;;12.30;99.90;;;;;;4952127;28;20050;-64
2022/07/23 03:12:24;;;;;;;7.00;4.60;;;12.40;99.90;;;;;;4951381;28;20035;-64
2022/07/23 03:14:50;;;;;;;4.60;3.42;;;12.30;99.90;;;;;;4956885;28;20372;-64
2022/07/23 03:17:16;;;;;;;10.05;4.63;;;12.30;99.90;;;;;;4971539;28;20070;-65
2022/07/23 03:19:41;;;;;;;10.88;5.00;;;12.30;99.90;;;;;;4958410;28;20034;-64
2022/07/23 03:22:07;;;;;;;6.60;4.45;;;12.20;99.90;;;;;;4962051;28;20050;-64
2022/07/23 03:27:17;;;;;;;13.13;2.30;;;12.10;99.90;;;;;;4961675;28;20590;-64
2022/07/23 03:29:43;;;;;;;19.10;2.45;;;12.00;99.90;;;;;;4966285;28;20035;-64
2022/07/23 03:32:08;;;;;;;3.20;2.20;;;11.90;99.90;;;;;;4975141;28;20070;-64
2022/07/23 03:34:34;;;;;;;4.55;2.20;;;11.90;99.90;;;;;;4964699;28;20093;-64
2022/07/23 03:37:00;;;;;;;3.88;2.42;;;11.80;99.90;;;;;;4964485;28;20039;-64
2022/07/23 03:39:25;;;;;;;5.95;4.03;;;11.80;99.90;;;;;;4974575;28;20557;-64
2022/07/23 03:41:51;;;;;;;4.72;3.45;;;11.90;99.90;;;;;;4965381;28;20079;-64
2022/07/23 03:44:16;;;;;;;5.05;2.88;;;11.80;99.90;;;;;;4964128;28;20046;-64
2022/07/23 03:46:42;;;;;;;5.30;3.60;;;11.80;99.90;;;;;;4974429;28;20530;-64
2022/07/23 03:49:07;;;;;;;4.63;3.25;;;11.80;99.90;;;;;;4974920;28;20050;-64
2022/07/23 03:51:33;;;;;;;4.78;3.17;;;11.80;99.90;;;;;;4971134;28;20246;-64
2022/07/23 03:53:59;;;;;;;5.88;2.92;;;11.80;99.90;;;;;;4965374;28;20065;-64
2022/07/23 03:56:25;;;;;;;6.75;4.03;;;11.80;99.90;;;;;;4974021;28;20035;-64
2022/07/23 03:58:51;;;;;;;19.20;4.07;;;11.80;99.90;;;;;;4974186;28;20121;-64
2022/07/23 04:01:17;;;;;;;111.45;4.30;;;11.90;99.90;;;;;;4963996;28;20126;-64
2022/07/23 04:03:42;;;;;;;125.32;4.05;;;11.80;99.90;;;;;;4969070;28;20039;-64
2022/07/23 04:06:08;;;;;;;45.53;2.30;;;11.70;99.90;;;;;;4970052;28;20077;-64
2022/07/23 04:08:34;;;;;;;10.43;1.40;;;11.60;99.90;;;;;;4973073;28;20685;-64
2022/07/23 04:10:59;;;;;;;37.63;2.00;;;11.50;99.90;;;;;;4953716;28;20098;-64
2022/07/23 04:13:25;;;;;;;60.30;2.72;;;11.50;99.90;;;;;;4971583;28;20039;-64
2022/07/23 04:15:51;;;;;;;90.97;3.22;;;11.50;99.90;;;;;;4974014;28;20027;-64
2022/07/23 04:18:17;;;;;;;64.53;4.03;;;11.50;99.90;;;;;;4960636;28;20508;-64
2022/07/23 04:20:44;;;;;;;59.03;2.72;;;11.40;99.90;;;;;;4968324;28;20038;-64
2022/07/23 04:23:09;;;;;;;31.45;2.03;;;11.40;99.90;;;;;;4974027;28;20109;-64
2022/07/23 04:25:35;;;;;;;15.50;1.90;;;11.40;99.90;;;;;;4960114;28;20575;-64
2022/07/23 04:28:01;;;;;;;17.75;2.00;;;11.50;99.90;;;;;;4937223;28;20137;-64
2022/07/23 04:30:27;;;;;;;20.45;1.83;;;11.50;99.90;;;;;;4973582;28;20462;-64
2022/07/23 04:32:52;;;;;;;3.35;1.88;;;11.50;99.90;;;;;;4969219;28;20045;-64
2022/07/23 04:35:18;;;;;;;7.22;2.92;;;11.50;99.90;;;;;;4958850;28;20051;-63
2022/07/23 04:37:44;;;;;;;4.85;3.58;;;11.40;99.90;;;;;;4956665;28;20042;-64
2022/07/23 04:40:10;;;;;;;5.57;3.28;;;11.50;99.90;;;;;;4965217;28;20054;-64
2022/07/23 04:42:36;;;;;;;5.40;3.50;;;11.50;99.90;;;;;;4965341;28;20038;-63
2022/07/23 04:45:03;;;;;;;5.10;3.80;;;11.50;99.90;;;;;;4962557;28;20065;-64
2022/07/23 04:47:30;;;;;;;7.32;3.97;;;11.60;99.90;;;;;;4973683;28;20078;-63
2022/07/23 04:49:56;;;;;;;6.82;4.28;;;11.70;99.90;;;;;;4955151;28;20039;-64
2022/07/23 04:52:22;;;;;;;7.10;5.10;;;11.80;99.90;;;;;;4966815;28;20039;-64
2022/07/23 04:54:48;;;;;;;11.02;5.43;;;11.90;99.90;;;;;;4973277;28;20031;-64
2022/07/23 04:57:13;;;;;;;10.63;5.15;;;12.00;99.90;;;;;;4960003;28;20089;-64
2022/07/23 04:59:39;;;;;;;8.23;5.32;;;12.20;99.90;;;;;;4962990;28;20119;-64
2022/07/23 05:02:05;;;;;;;8.32;4.85;;;12.20;99.90;;;;;;4964105;28;20082;-63
2022/07/23 05:04:31;;;;;;;9.13;5.10;;;12.30;99.90;;;;;;4968210;28;20047;-64
2022/07/23 05:06:57;;;;;;;10.50;5.60;;;12.40;99.90;;;;;;4942910;29;20054;-64
2022/07/23 05:09:22;;;;;;;10.40;6.32;;;12.50;99.90;;;;;;4968384;28;20034;-64
2022/07/23 05:11:48;;;;;;;14.80;7.00;;;12.60;99.90;;;;;;4968461;28;20491;-64
2022/07/23 05:14:14;;;;;;;12.40;6.57;;;12.70;99.90;;;;;;4964539;28;20399;-64
2022/07/23 05:16:39;;;;;;;12.15;6.72;;;12.80;99.90;;;;;;4955104;28;20172;-63
2022/07/23 05:21:40;;;;;;;12.43;6.97;;;13.00;99.90;;;;;;5274712;23;20054;-65
2022/07/23 05:24:06;;;;;;;9.27;5.82;;;13.10;99.90;;;;;;4979519;28;20041;-66
2022/07/23 05:39:29;;;;;;;9.52;6.07;;;13.40;99.90;;;;;;5072633;23;20059;-65
2022/07/23 05:41:55;;;;;;;10.00;6.38;;;13.50;99.90;;;;;;4927362;29;20420;-66
2022/07/23 05:44:20;;;;;;;10.00;6.45;;;13.60;99.90;;;;;;4926303;29;20031;-65
2022/07/23 05:46:46;;;;;;;15.15;6.32;;;13.60;99.90;;;;;;4925849;29;20080;-66
2022/07/23 06:02:09;;;;;;;10.90;6.35;;;14.20;99.90;;;;;;5750635;23;20491;-65
2022/07/23 06:04:34;;;;;;;11.85;6.75;;;14.30;99.90;;;;;;4954467;28;20046;-65
2022/07/23 06:07:00;;;;;;;12.98;6.32;;;14.40;99.90;;;;;;4972184;28;20051;-64
2022/07/23 06:20:14;;;;;;;13.88;6.70;;;14.80;99.90;;;;;;5563524;23;20507;-66
2022/07/23 06:27:51;;;;;;;10.48;5.93;;;15.00;99.90;;;;;;5327300;23;20050;-66
2022/07/23 06:38:32;;;;;;;10.25;5.43;;;15.20;99.90;;;;;;5391495;23;20058;-67
2022/07/23 06:40:58;;;;;;;11.68;6.13;;;15.30;99.90;;;;;;4967651;28;20038;-67
2022/07/23 06:43:23;;;;;;;11.07;5.57;;;15.30;99.90;;;;;;4968539;28;20023;-67
2022/07/23 06:45:49;;;;;;;15.35;6.43;;;15.40;99.90;;;;;;4963123;28;20503;-66
2022/07/23 07:01:11;;;;;;;8.52;5.38;;;15.80;99.90;;;;;;5104169;23;20051;-65
2022/07/23 07:03:37;;;;;;;9.43;5.70;;;15.90;99.90;;;;;;4945800;28;20042;-65
2022/07/23 07:06:03;;;;;;;9.75;4.93;;;15.90;99.90;;;;;;4959746;28;20032;-65
2022/07/23 07:08:29;;;;;;;8.48;4.95;;;16.00;99.90;;;;;;4954749;29;20407;-65
2022/07/23 07:10:54;;;;;;;7.97;5.20;;;16.10;99.90;;;;;;4942256;29;20515;-65
2022/07/23 07:23:41;;;;;;;9.77;4.20;;;16.50;99.90;;;;;;5955140;23;20826;-68
2022/07/23 07:26:07;;;;;;;7.25;3.72;;;16.60;99.90;;;;;;4984521;28;20043;-67
2022/07/23 07:28:33;;;;;;;9.18;3.80;;;16.60;99.90;;;;;;4953958;28;20035;-67
2022/07/23 07:30:58;;;;;;;5.90;3.90;;;16.60;99.90;;;;;;4968084;28;20371;-66
2022/07/23 07:33:24;;;;;;;7.43;3.70;;;16.60;99.90;;;;;;4974063;28;20039;-68
2022/07/23 07:35:49;;;;;;;5.13;3.47;;;16.70;99.90;;;;;;4954061;28;20391;-68
2022/07/23 07:38:15;;;;;;;6.35;3.00;;;16.80;99.90;;;;;;4943790;28;20094;-68
2022/07/23 07:40:41;;;;;;;6.03;3.40;;;16.90;99.90;;;;;;4954701;28;20047;-68
2022/07/23 07:43:06;;;;;;;7.18;3.70;;;16.90;99.90;;;;;;4937170;29;20043;-68
2022/07/23 07:45:32;;;;;;;5.07;2.50;;;16.90;99.90;;;;;;4952791;28;21021;-68
2022/07/23 07:47:58;;;;;;;4.35;2.88;;;17.00;99.90;;;;;;4936993;29;20471;-66
2022/07/23 07:50:23;;;;;;;7.05;3.20;;;17.10;99.90;;;;;;4953986;28;20039;-66
2022/07/23 07:52:49;;;;;;;5.38;3.05;;;17.20;99.90;;;;;;4935005;28;20043;-66
2022/07/23 07:55:15;;;;;;;4.63;2.40;;;17.30;99.90;;;;;;4934421;28;20083;-66
2022/07/23 07:57:41;;;;;;;6.85;2.60;;;17.40;99.90;;;;;;4953041;28;20067;-66
2022/07/23 08:00:09;;;;;;;2.63;2.10;;;17.50;99.90;;;;;;4937767;28;20133;-66
2022/07/23 08:02:51;;;;;;;4.65;2.40;;;17.60;99.90;;;;;;4989534;28;20050;-66
2022/07/23 08:05:26;;;;;;;4.13;2.08;;;17.70;99.90;;;;;;4944815;28;20141;-66
2022/07/23 08:07:52;;;;;;;5.13;2.20;;;17.80;99.90;;;;;;4953656;28;20090;-66
2022/07/23 08:10:18;;;;;;;3.22;1.90;;;17.90;99.90;;;;;;4953478;28;20039;-66
2022/07/23 08:12:46;;;;;;;3.63;2.00;;;17.90;99.90;;;;;;4967463;28;20126;-66
2022/07/23 08:15:14;;;;;;;2.72;1.85;;;18.00;99.90;;;;;;4955351;28;20074;-66
2022/07/23 08:17:42;;;;;;;3.95;1.70;;;18.10;99.90;;;;;;4941311;28;20027;-69
2022/07/23 08:20:09;;;;;;;2.70;2.13;;;18.20;99.90;;;;;;4956552;28;20614;-69
2022/07/23 08:23:03;;;;;;;3.85;1.70;;;18.10;99.90;;;;;;4944162;29;20109;-67
2022/07/23 08:25:32;;;;;;;3.00;2.03;;;18.10;99.90;;;;;;4965483;28;20043;-67
2022/07/23 08:28:00;;;;;;;5.40;2.00;;;18.10;99.90;;;;;;4940653;29;20079;-66
2022/07/23 08:30:26;;;;;;;4.00;2.03;;;18.30;99.90;;;;;;4964811;28;20035;-66
2022/07/23 08:33:03;;;;;;;2.75;1.70;;;18.30;99.90;;;;;;4960382;28;20090;-66
2022/07/23 08:35:34;;;;;;;3.47;1.80;;;18.40;99.90;;;;;;4954028;28;20062;-66
2022/07/23 08:38:02;;;;;;;3.53;1.80;;;18.60;99.90;;;;;;4939509;28;20043;-66
2022/07/23 08:40:30;;;;;;;5.18;1.80;;;18.80;99.90;;;;;;4947338;28;20047;-68
2022/07/23 08:42:56;;;;;;;3.05;1.80;;;18.80;99.90;;;;;;4945187;28;20055;-68
2022/07/23 08:45:24;;;;;;;3.08;1.55;;;18.90;99.90;;;;;;4935537;28;20049;-67
2022/07/23 08:47:53;;;;;;;3.50;1.75;;;19.00;99.90;;;;;;4953457;28;20455;-67
2022/07/23 08:50:19;;;;;;;2.92;1.50;;;18.90;99.90;;;;;;4953749;29;20043;-68
2022/07/23 08:52:45;;;;;;;4.45;1.70;;;18.70;99.90;;;;;;4956002;28;20034;-67
2022/07/23 08:55:11;;;;;;;4.68;1.70;;;18.60;99.90;;;;;;4952419;28;20462;-67
2022/07/23 08:57:36;;;;;;;3.08;1.70;;;18.70;99.90;;;;;;4943445;28;20035;-68
2022/07/23 09:00:04;;;;;;;4.05;1.90;;;18.90;99.90;;;;;;4959605;28;20507;-67
2022/07/23 09:02:30;;;;;;;3.03;1.70;;;19.30;99.90;;;;;;4966322;28;20031;-67
2022/07/23 09:04:56;;;;;;;2.08;1.45;;;19.50;99.90;;;;;;4960272;28;20101;-68
2022/07/23 09:07:21;;;;;;;1.90;1.48;;;19.50;99.90;;;;;;4953191;29;20047;-68
2022/07/23 09:09:52;;;;;;;2.10;1.52;;;19.60;99.90;;;;;;4947262;28;20031;-67
2022/07/23 09:12:18;;;;;;;3.60;1.67;;;19.60;99.90;;;;;;4952839;28;20727;-66
2022/07/23 09:14:48;;;;;;;4.40;1.88;;;19.70;99.90;;;;;;4953105;29;20125;-66
2022/07/23 09:17:16;;;;;;;5.45;2.00;;;19.70;99.90;;;;;;4960392;28;20046;-66
2022/07/23 09:19:43;;;;;;;3.88;1.90;;;19.70;99.90;;;;;;4958790;28;20062;-67
2022/07/23 09:22:23;;;;;;;2.83;2.00;;;19.60;99.90;;;;;;4944776;28;20035;-67
2022/07/23 09:25:15;;;;;;;4.00;2.00;;;19.50;99.90;;;;;;4964667;28;20039;-65
2022/07/23 09:27:56;;;;;;;2.63;1.77;;;19.40;99.90;;;;;;4942805;28;20090;-66
2022/07/23 09:30:23;;;;;;;3.70;1.73;;;19.70;99.90;;;;;;4952634;28;20039;-66
2022/07/23 09:33:07;;;;;;;2.30;1.70;;;19.70;99.90;;;;;;4934579;28;20043;-66
2022/07/23 09:35:55;;;;;;;2.67;1.50;;;19.80;99.90;;;;;;4962733;28;20118;-66
2022/07/23 09:38:24;;;;;;;3.50;1.80;;;19.90;99.90;;;;;;4962677;28;20403;-66
2022/07/23 09:41:09;;;;;;;4.15;2.00;;;19.70;99.90;;;;;;4948140;28;20567;-65
2022/07/23 09:43:35;;;;;;;1.92;1.50;;;19.60;99.90;;;;;;4965275;28;20059;-65
2022/07/23 09:46:18;;;;;;;2.38;1.90;;;19.60;99.90;;;;;;4958520;28;20043;-65
2022/07/23 09:48:43;;;;;;;2.30;1.75;;;19.60;99.90;;;;;;4965039;28;20046;-65
2022/07/23 09:51:09;;;;;;;3.40;1.67;;;20.10;99.90;;;;;;4944103;28;20046;-65
2022/07/23 09:53:35;;;;;;;3.53;1.80;;;20.40;99.90;;;;;;4956405;28;20486;-67
2022/07/23 09:56:01;;;;;;;4.63;1.63;;;20.60;99.90;;;;;;4934818;29;20572;-67
2022/07/23 09:58:28;;;;;;;4.20;1.55;;;20.50;99.90;;;;;;4951972;29;20035;-67
2022/07/23 10:00:55;;;;;;;3.13;1.50;;;20.30;99.90;;;;;;4959778;28;20408;-67
2022/07/23 10:03:23;;;;;;;3.25;1.70;;;20.30;99.90;;;;;;4950852;28;20061;-67
2022/07/23 10:05:50;;;;;;;3.22;1.70;;;20.30;99.90;;;;;;4952728;29;20109;-67
2022/07/23 10:08:18;;;;;;;3.92;1.67;;;20.40;99.90;;;;;;4950371;28;20126;-66
2022/07/23 10:10:46;;;;;;;8.02;2.20;;;20.30;99.90;;;;;;4951832;28;20043;-66
2022/07/23 10:15:56;;;;;;;3.60;1.80;;;20.00;99.90;;;;;;4951206;28;20047;-66
2022/07/23 10:18:21;;;;;;;3.00;1.77;;;20.20;99.90;;;;;;4919257;29;20035;-67
2022/07/23 10:20:49;;;;;;;1.70;1.60;;;20.20;99.90;;;;;;4952313;29;20551;-66
2022/07/23 10:23:33;;;;;;;3.15;2.00;;;20.20;99.90;;;;;;4933124;28;20403;-66
2022/07/23 10:26:24;;;;;;;2.50;1.65;;;20.30;99.90;;;;;;4957036;28;20035;-67
2022/07/23 10:29:21;;;;;;;2.00;1.60;;;20.60;99.90;;;;;;4929416;28;20054;-66
2022/07/23 10:32:08;;;;;;;2.42;1.90;;;20.70;99.90;;;;;;4930122;28;20055;-67
2022/07/23 10:34:55;;;;;;;2.13;1.70;;;20.60;99.90;;;;;;4953639;28;20038;-65
2022/07/23 10:37:28;;;;;;;3.55;1.65;;;20.70;99.90;;;;;;4962285;28;20117;-65
2022/07/23 10:40:21;;;;;;;1.90;1.42;;;20.70;99.90;;;;;;4954667;28;20420;-65
2022/07/23 10:42:48;;;;;;;2.65;1.73;;;20.70;99.90;;;;;;4944100;28;20046;-65
2022/07/23 10:45:27;;;;;;;2.78;1.80;;;20.60;99.90;;;;;;4964876;28;20047;-65
2022/07/23 10:47:54;;;;;;;2.65;1.95;;;20.60;99.90;;;;;;4947791;28;20039;-65
2022/07/23 10:50:27;;;;;;;2.42;1.70;;;20.70;99.90;;;;;;4970793;28;20121;-65
2022/07/23 10:53:05;;;;;;;3.53;1.83;;;20.80;99.80;;;;;;4974805;28;20039;-65
2022/07/23 10:55:31;;;;;;;3.20;1.95;;;20.80;99.40;;;;;;4953021;28;20039;-65
2022/07/23 10:57:56;;;;;;;2.95;2.20;;;20.90;99.90;;;;;;4942382;28;20125;-65
2022/07/23 11:00:24;;;;;;;2.25;1.90;;;21.10;99.00;;;;;;4962332;28;20046;-65
2022/07/23 11:02:55;;;;;;;2.35;1.70;;;21.20;99.40;;;;;;4949302;28;20078;-65
2022/07/23 11:05:24;;;;;;;3.13;1.98;;;21.30;99.90;;;;;;4965449;28;20081;-66
2022/07/23 11:08:04;;;;;;;2.67;1.90;;;21.50;99.90;;;;;;4964051;28;20038;-67
2022/07/23 11:10:35;;;;;;;2.00;1.70;;;21.60;99.00;;;;;;4943328;28;20538;-66
2022/07/23 11:13:22;;;;;;;1.95;1.58;;;21.70;99.90;;;;;;4946903;28;20047;-68
2022/07/23 11:16:04;;;;;;;2.33;1.85;;;22.00;97.00;;;;;;4958110;28;20035;-66
2022/07/23 11:18:54;;;;;;;2.33;1.75;;;22.00;95.80;;;;;;4955064;28;20074;-67
2022/07/23 11:21:23;;;;;;;2.22;1.88;;;22.00;97.70;;;;;;4963013;28;20061;-66
2022/07/23 11:24:13;;;;;;;2.42;1.77;;;21.80;98.40;;;;;;4944919;28;20093;-65
2022/07/23 11:26:44;;;;;;;3.63;1.75;;;21.70;97.50;;;;;;4965157;28;20053;-66
2022/07/23 11:29:28;;;;;;;2.15;1.88;;;21.80;98.30;;;;;;4938487;29;20823;-66
2022/07/23 11:32:07;;;;;;;2.72;1.88;;;22.20;96.50;;;;;;4938984;28;20043;-67
2022/07/23 11:34:36;;;;;;;5.50;2.05;;;22.30;96.40;;;;;;4952908;28;20034;-67
2022/07/23 11:37:06;;;;;;;2.20;1.90;;;22.20;97.90;;;;;;4936162;29;20058;-67
2022/07/23 11:39:33;;;;;;;4.53;2.00;;;22.10;97.40;;;;;;4953235;28;20039;-67
2022/07/23 11:42:00;;;;;;;2.67;2.00;;;22.20;98.10;;;;;;4933084;28;20050;-67
2022/07/23 11:44:31;;;;;;;2.00;1.70;;;22.20;98.10;;;;;;4954951;28;20577;-67
2022/07/23 11:47:03;;;;;;;2.35;2.00;;;22.20;96.90;;;;;;4955216;28;20447;-67
2022/07/23 11:49:29;;;;;;;4.30;2.20;;;22.40;97.70;;;;;;4953992;28;20043;-67
2022/07/23 11:52:10;;;;;;;3.00;2.00;;;22.20;97.90;;;;;;4954029;28;20752;-67
2022/07/23 11:54:57;;;;;;;2.92;2.17;;;22.00;97.20;;;;;;4952566;28;20045;-65
2022/07/23 11:57:32;;;;;;;3.33;1.90;;;21.90;95.70;;;;;;4959130;28;20035;-66
2022/07/23 12:00:12;;;;;;;3.15;2.28;;;22.00;97.90;;;;;;4954166;28;20102;-67
2022/07/23 12:02:42;;;;;;;3.15;2.25;;;22.00;97.80;;;;;;4977480;28;20035;-67
2022/07/23 12:05:16;;;;;;;4.72;2.28;;;21.90;98.00;;;;;;4959547;28;20045;-67
2022/07/23 12:07:49;;;;;;;2.78;2.28;;;21.90;97.40;;;;;;4937069;29;20114;-65
2022/07/23 12:10:18;;;;;;;4.50;2.42;;;22.10;98.00;;;;;;4937319;29;20158;-65
2022/07/23 12:12:45;;;;;;;5.10;2.45;;;22.20;97.80;;;;;;4951901;28;20043;-65
2022/07/23 12:15:13;;;;;;;2.00;1.80;;;22.30;98.00;;;;;;4957408;28;20039;-65
2022/07/23 12:17:41;;;;;;;3.33;2.40;;;22.30;98.30;;;;;;4938990;29;20075;-65
2022/07/23 12:20:11;;;;;;;6.10;2.60;;;22.20;97.60;;;;;;4953849;28;20149;-66
2022/07/23 12:22:43;;;;;;;5.00;2.60;;;22.40;97.90;;;;;;4960458;28;20043;-65
2022/07/23 12:25:15;;;;;;;2.78;2.15;;;22.50;96.90;;;;;;4935677;29;20046;-66
2022/07/23 12:27:42;;;;;;;4.15;2.35;;;22.30;97.10;;;;;;4937440;29;20083;-66
2022/07/23 12:30:21;;;;;;;2.90;2.10;;;22.10;97.70;;;;;;4955434;28;20038;-69
2022/07/23 12:32:49;;;;;;;4.25;2.60;;;22.20;97.40;;;;;;4956801;28;20043;-69
2022/07/23 12:35:16;;;;;;;4.53;2.63;;;22.60;97.60;;;;;;4935040;28;20515;-66
2022/07/23 12:37:44;;;;;;;4.40;2.40;;;22.60;97.10;;;;;;4956556;28;20054;-67
2022/07/23 12:40:20;;;;;;;3.60;2.40;;;22.50;97.20;;;;;;4962109;28;20600;-68
2022/07/23 12:42:56;;;;;;;3.55;2.42;;;22.50;96.10;;;;;;4936189;29;20047;-68
2022/07/23 12:45:22;;;;;;;3.55;2.70;;;22.30;95.70;;;;;;4961220;28;20492;-68
2022/07/23 12:47:54;;;;;;;2.85;2.30;;;22.40;97.50;;;;;;4954793;28;20496;-67
2022/07/23 12:50:42;;;;;;;5.00;2.75;;;22.60;97.50;;;;;;4936026;29;20089;-68
2022/07/23 12:53:17;;;;;;;3.75;2.60;;;22.90;95.20;;;;;;4934133;28;20889;-67
2022/07/23 12:55:44;;;;;;;3.15;2.40;;;23.00;96.90;;;;;;4943217;28;20514;-68
2022/07/23 12:58:11;;;;;;;6.47;2.53;;;23.30;96.10;;;;;;4963554;28;20038;-67
2022/07/23 13:00:51;;;;;;;4.75;2.60;;;23.30;95.70;;;;;;4942055;28;20062;-65
2022/07/23 13:03:33;;;;;;;4.50;2.40;;;23.40;94.90;;;;;;4938386;28;20051;-69
2022/07/23 13:06:00;;;;;;;3.88;2.40;;;23.60;95.30;;;;;;4947303;28;20046;-66
2022/07/23 13:08:29;;;;;;;3.88;2.40;;;23.50;95.50;;;;;;4957106;28;20550;-67
2022/07/23 13:10:55;;;;;;;3.50;2.58;;;23.60;95.40;;;;;;4944805;28;20081;-67
2022/07/23 13:13:23;;;;;;;6.88;2.50;;;23.80;95.10;;;;;;4964248;28;20068;-67
2022/07/23 13:15:50;;;;;;;3.83;2.70;;;24.00;94.90;;;;;;4947482;28;20062;-67
2022/07/23 13:18:17;;;;;;;4.57;3.00;;;24.20;95.30;;;;;;4941344;29;20051;-67
2022/07/23 13:20:44;;;;;;;3.80;2.75;;;24.30;94.80;;;;;;4938309;29;20130;-68
2022/07/23 13:23:10;;;;;;;3.50;2.85;;;24.40;94.50;;;;;;4950346;28;20095;-68
2022/07/23 13:25:36;;;;;;;3.85;2.53;;;24.50;94.50;;;;;;4983242;23;20051;-65
2022/07/23 13:28:02;;;;;;;3.67;2.67;;;24.80;94.90;;;;;;4966057;28;20042;-65
2022/07/23 13:30:28;;;;;;;3.50;2.70;;;24.70;94.60;;;;;;4946971;28;20034;-66
2022/07/23 13:48:28;;;;;;;3.08;2.53;;;24.60;95.50;;;;;;5672237;23;20051;-66
2022/07/23 14:14:12;;;;;;;3.67;2.20;;;25.50;94.00;;;;;;5118494;23;20093;-67
2022/07/23 14:16:38;;;;;;;10.85;2.47;;;25.50;93.80;;;;;;4925412;29;20036;-67
2022/07/23 14:21:39;;;;;;;3.05;2.30;;;25.60;93.20;;;;;;5678941;23;20113;-67
2022/07/23 14:24:05;;;;;;;5.80;2.30;;;25.70;94.00;;;;;;4947011;28;20389;-67
2022/07/23 14:26:31;;;;;;;2.90;2.30;;;25.40;93.90;;;;;;4929048;29;20032;-66
2022/07/23 14:34:07;;;;;;;3.40;2.40;;;25.30;93.80;;;;;;5918084;23;20041;-66
2022/07/23 14:36:33;;;;;;;3.15;2.15;;;25.70;93.50;;;;;;4971682;28;20418;-65
2022/07/23 14:44:09;;;;;;;4.15;2.40;;;27.10;92.40;;;;;;5896546;23;20059;-67
2022/07/23 14:51:46;;;;;;;3.50;2.10;;;27.30;90.40;;;;;;6027737;23;20042;-68
2022/07/23 14:54:11;;;;;;;5.82;2.50;;;27.50;90.10;;;;;;4972025;28;20138;-66
2022/07/23 14:56:37;;;;;;;2.97;2.25;;;27.80;89.80;;;;;;4975207;28;20063;-66
2022/07/23 14:59:04;;;;;;;2.65;2.10;;;28.00;88.70;;;;;;4959268;28;20076;-66
2022/07/23 15:09:08;;;;;;;2.33;1.80;;;28.90;86.70;;;;;;4918100;29;20051;-67
2022/07/23 16:24:05;;;;;;;3.33;2.15;;;30.00;71.30;;;;;;6129040;23;20009;-66
2022/07/23 16:34:17;;;;;;;2.42;2.10;;;31.50;67.80;;;;;;5877776;23;20054;-67
2022/07/23 16:36:43;;;;;;;3.13;2.10;;;31.40;65.90;;;;;;4947578;29;20031;-67